Time;durP1;ratioP1;P1;durP2;ratioP2;P2;SDS_P1;SDS_P2;PMS_P1;PMS_P2;Temp;Humidity;BMP_temperature;BMP_pressure;BME280_temperature;BME280_humidity;BME280_pressure;Samples;Min_cycle;Max_cycle;Signal;HPM_P1;HPM_P2
2022/08/08 00:06:11;;;;;;;;;;;31.30;40.10;;;;;;707163;27;1389;-91
2022/08/08 00:06:57;;;;;;;;;;;31.20;40.10;;;;;;704631;28;1260;-92
2022/08/08 00:07:25;;;;;;;;;;;31.20;40.30;;;;;;693769;28;1198;-93
2022/08/08 00:07:49;;;;;;;;;;;31.30;40.20;;;;;;701473;28;1183;-91
2022/08/08 00:08:13;;;;;;;;;;;31.20;40.20;;;;;;701725;28;1345;-94
2022/08/08 00:09:12;;;;;;;;;;;31.20;40.40;;;;;;704646;28;1116;-94
2022/08/08 00:09:54;;;;;;;;;;;31.20;40.20;;;;;;690644;28;1282;-92
2022/08/08 00:10:17;;;;;;;;;;;31.20;40.30;;;;;;687960;28;1198;-90
2022/08/08 00:10:45;;;;;;;;;;;31.20;40.30;;;;;;690617;28;1399;-91
2022/08/08 00:11:14;;;;;;;;;;;31.20;40.40;;;;;;690860;28;783;-92
2022/08/08 00:11:51;;;;;;;;;;;31.20;40.40;;;;;;687953;28;1202;-90
2022/08/08 00:12:16;;;;;;;;;;;31.20;40.30;;;;;;687945;28;814;-91
2022/08/08 00:12:57;;;;;;;;;;;31.20;40.40;;;;;;687511;28;1210;-95
2022/08/08 00:13:23;;;;;;;;;;;31.20;40.40;;;;;;685461;28;1423;-91
2022/08/08 00:14:10;;;;;;;;;;;31.20;40.50;;;;;;690559;28;1199;-90
2022/08/08 00:14:49;;;;;;;;;;;31.20;40.40;;;;;;689302;28;1283;-90
2022/08/08 00:15:18;;;;;;;;;;;31.20;40.40;;;;;;694952;28;814;-91
2022/08/08 00:15:45;;;;;;;;;;;31.20;40.50;;;;;;694215;28;1236;-91
2022/08/08 00:16:06;;;;;;;;;;;31.20;40.50;;;;;;693218;28;1279;-91
2022/08/08 00:16:31;;;;;;;;;;;31.20;40.50;;;;;;695842;28;1246;-95
2022/08/08 00:17:05;;;;;;;;;;;31.20;40.50;;;;;;693196;28;1212;-90
2022/08/08 00:17:45;;;;;;;;;;;31.20;40.60;;;;;;690547;28;1127;-92
2022/08/08 00:18:10;;;;;;;;;;;31.20;40.50;;;;;;687611;28;1241;-90
2022/08/08 00:18:31;;;;;;;;;;;;;;;;;;687984;28;1264;-91
2022/08/08 00:19:03;;;;;;;;;;;31.20;40.50;;;;;;690470;28;1264;-90
2022/08/08 00:19:32;;;;;;;;;;;31.20;40.50;;;;;;690449;28;1304;-91
2022/08/08 00:20:05;;;;;;;;;;;31.20;40.50;;;;;;691465;28;1028;-90
2022/08/08 00:20:31;;;;;;;;;;;31.10;40.40;;;;;;688722;28;1247;-90
2022/08/08 00:21:01;;;;;;;;;;;31.20;40.60;;;;;;687617;28;1111;-90
2022/08/08 00:21:25;;;;;;;;;;;31.20;40.70;;;;;;685302;28;1268;-92
2022/08/08 00:21:50;;;;;;;;;;;31.20;40.60;;;;;;682696;28;1347;-91
2022/08/08 00:22:20;;;;;;;;;;;31.20;40.60;;;;;;683047;28;985;-92
2022/08/08 00:22:43;;;;;;;;;;;31.20;40.70;;;;;;683466;28;1323;-90
2022/08/08 00:23:10;;;;;;;;;;;31.20;40.60;;;;;;687916;28;1319;-90
2022/08/08 00:23:31;;;;;;;;;;;;;;;;;;691084;28;787;-90
2022/08/08 00:23:52;;;;;;;;;;;31.10;40.60;;;;;;693314;28;1329;-90
2022/08/08 00:24:18;;;;;;;;;;;31.20;40.70;;;;;;693322;28;768;-91
2022/08/08 00:24:45;;;;;;;;;;;31.20;40.70;;;;;;695679;28;1226;-91
2022/08/08 00:25:19;;;;;;;;;;;31.20;40.60;;;;;;693446;28;1161;-94
2022/08/08 00:25:41;;;;;;;;;;;31.20;40.60;;;;;;692437;28;1918;-91
2022/08/08 00:26:05;;;;;;;;;;;31.20;40.60;;;;;;690190;28;1162;-90
2022/08/08 00:26:31;;;;;;;;;;;31.20;40.60;;;;;;693347;28;1188;-93
2022/08/08 00:26:58;;;;;;;;;;;31.10;40.50;;;;;;692887;28;1284;-90
2022/08/08 00:27:19;;;;;;;;;;;31.10;40.40;;;;;;693422;28;1094;-90
2022/08/08 00:27:41;;;;;;;;;;;31.20;40.60;;;;;;696155;28;1242;-92
2022/08/08 00:28:04;;;;;;;;;;;31.20;40.60;;;;;;696439;28;755;-91
2022/08/08 00:28:45;;;;;;;;;;;31.20;40.60;;;;;;693899;28;1204;-91
2022/08/08 00:29:06;;;;;;;;;;;31.20;40.60;;;;;;695338;28;1248;-93
2022/08/08 00:29:30;;;;;;;;;;;31.20;40.60;;;;;;692893;28;1192;-92
2022/08/08 00:30:20;;;;;;;;;;;31.10;40.50;;;;;;694444;28;941;-91
2022/08/08 00:30:41;;;;;;;;;;;;;;;;;;692543;28;1236;-92
2022/08/08 00:31:10;;;;;;;;;;;31.20;40.50;;;;;;690730;28;1402;-91
2022/08/08 00:31:34;;;;;;;;;;;31.20;40.50;;;;;;690700;28;1001;-90
2022/08/08 00:32:00;;;;;;;;;;;31.20;40.50;;;;;;689188;28;1149;-91
2022/08/08 00:33:05;;;;;;;;;;;31.20;40.80;;;;;;688389;28;1361;-91
2022/08/08 00:33:48;;;;;;;;;;;31.20;40.40;;;;;;688295;28;1228;-87
2022/08/08 00:35:21;;;;;;;;;;;31.20;40.50;;;;;;688302;28;1024;-94
2022/08/08 00:36:13;;;;;;;;;;;31.20;40.40;;;;;;690456;28;1247;-93
2022/08/08 00:36:41;;;;;;;;;;;31.20;41.10;;;;;;682594;28;1336;-92
2022/08/08 00:37:22;;;;;;;;;;;31.20;40.10;;;;;;687321;28;1264;-92
2022/08/08 00:37:49;;;;;;;;;;;31.20;40.40;;;;;;683758;28;1238;-94
2022/08/08 00:38:13;;;;;;;;;;;31.10;40.30;;;;;;682568;28;1145;-94
2022/08/08 00:38:57;;;;;;;;;;;31.20;41.20;;;;;;687823;28;1154;-94
2022/08/08 00:39:27;;;;;;;;;;;31.20;41.50;;;;;;687854;28;1264;-93
2022/08/08 00:40:13;;;;;;;;;;;31.20;40.50;;;;;;690678;28;1208;-91
2022/08/08 00:40:40;;;;;;;;;;;31.20;41.00;;;;;;690600;28;1153;-93
2022/08/08 00:41:25;;;;;;;;;;;31.20;40.90;;;;;;691119;28;1298;-93
2022/08/08 00:42:03;;;;;;;;;;;31.10;40.90;;;;;;704104;28;1257;-94
2022/08/08 00:42:42;;;;;;;;;;;31.10;40.50;;;;;;700555;28;1267;-94
2022/08/08 00:43:03;;;;;;;;;;;31.10;40.50;;;;;;701767;28;1211;-92
2022/08/08 00:43:36;;;;;;;;;;;31.10;40.30;;;;;;698645;28;1336;-93
2022/08/08 00:44:15;;;;;;;;;;;31.10;40.30;;;;;;698873;28;1322;-93
2022/08/08 00:44:37;;;;;;;;;;;;;;;;;;701555;28;1369;-92
2022/08/08 00:45:13;;;;;;;;;;;31.10;40.30;;;;;;697014;28;1195;-94
2022/08/08 00:45:52;;;;;;;;;;;31.20;40.60;;;;;;696026;28;1957;-93
2022/08/08 00:46:13;;;;;;;;;;;31.10;40.70;;;;;;695852;28;1255;-94
2022/08/08 00:46:33;;;;;;;;;;;31.10;40.70;;;;;;698399;28;1207;-93
2022/08/08 00:46:57;;;;;;;;;;;31.10;41.00;;;;;;698192;28;1178;-93
2022/08/08 00:47:40;;;;;;;;;;;31.10;40.50;;;;;;696086;28;1183;-93
2022/08/08 00:48:08;;;;;;;;;;;31.10;41.20;;;;;;696200;28;1468;-93
2022/08/08 00:48:43;;;;;;;;;;;31.10;41.20;;;;;;693531;28;1365;-93
2022/08/08 00:49:15;;;;;;;;;;;31.20;41.00;;;;;;696181;28;1319;-93
2022/08/08 00:49:40;;;;;;;;;;;31.10;41.10;;;;;;693373;28;1179;-92
2022/08/08 00:50:07;;;;;;;;;;;31.10;41.20;;;;;;696690;28;1495;-91
2022/08/08 00:50:56;;;;;;;;;;;31.10;41.00;;;;;;696336;28;1223;-93
2022/08/08 00:51:19;;;;;;;;;;;31.10;40.40;;;;;;687966;28;1145;-94
2022/08/08 00:52:01;;;;;;;;;;;31.10;40.80;;;;;;687795;28;1348;-93
2022/08/08 00:52:32;;;;;;;;;;;31.10;40.80;;;;;;689589;28;1186;-93
2022/08/08 00:52:59;;;;;;;;;;;31.10;40.60;;;;;;687806;28;1214;-94
2022/08/08 00:53:38;;;;;;;;;;;31.10;40.40;;;;;;693348;28;1189;-93
2022/08/08 00:54:23;;;;;;;;;;;31.10;40.70;;;;;;690535;28;1189;-92
2022/08/08 00:55:03;;;;;;;;;;;31.10;40.80;;;;;;693495;28;806;-92
2022/08/08 00:55:24;;;;;;;;;;;;;;;;;;690846;28;1307;-93
2022/08/08 00:55:53;;;;;;;;;;;31.10;40.50;;;;;;691191;28;1431;-93
2022/08/08 00:56:44;;;;;;;;;;;;;;;;;;;;;
2022/08/08 00:57:24;;;;;;;;;;;31.00;40.60;;;;;;693074;28;1290;-92
2022/08/08 00:58:03;;;;;;;;;;;31.10;40.50;;;;;;696054;28;1361;-93
2022/08/08 00:58:26;;;;;;;;;;;31.10;40.50;;;;;;690605;28;1340;-93
2022/08/08 00:59:05;;;;;;;;;;;31.10;40.80;;;;;;688339;28;1097;-96
2022/08/08 00:59:42;;;;;;;;;;;31.10;40.80;;;;;;690505;28;1189;-92
2022/08/08 01:00:05;;;;;;;;;;;31.10;40.50;;;;;;690477;28;1134;-92
2022/08/08 01:00:27;;;;;;;;;;;31.10;40.60;;;;;;693438;28;853;-93
2022/08/08 01:01:06;;;;;;;;;;;31.10;40.60;;;;;;693145;28;1196;-95
2022/08/08 01:01:51;;;;;;;;;;;31.10;41.00;;;;;;688053;28;1188;-95
2022/08/08 01:02:33;;;;;;;;;;;31.10;40.60;;;;;;687745;28;1295;-93
2022/08/08 01:03:17;;;;;;;;;;;;;;;;;;;;;
2022/08/08 01:03:50;;;;;;;;;;;31.10;40.70;;;;;;692980;28;1200;-93
2022/08/08 01:04:36;;;;;;;;;;;31.10;40.70;;;;;;692700;28;1411;-92
2022/08/08 01:05:15;;;;;;;;;;;31.10;40.80;;;;;;690423;28;1197;-94
2022/08/08 01:05:52;;;;;;;;;;;31.00;41.10;;;;;;687773;28;1949;-91
2022/08/08 01:06:31;;;;;;;;;;;31.10;41.00;;;;;;687756;28;1271;-92
2022/08/08 01:07:06;;;;;;;;;;;31.00;40.40;;;;;;690539;28;1351;-92
2022/08/08 01:07:36;;;;;;;;;;;31.00;40.40;;;;;;691890;28;1165;-94
2022/08/08 01:08:17;;;;;;;;;;;31.00;40.70;;;;;;694245;28;1252;-95
2022/08/08 01:08:58;;;;;;;;;;;31.00;41.00;;;;;;684785;28;1222;-92
2022/08/08 01:09:56;;;;;;;;;;;31.00;40.70;;;;;;683810;28;1346;-93
2022/08/08 01:10:29;;;;;;;;;;;;;;;;;;;;;
2022/08/08 01:11:09;;;;;;;;;;;31.00;41.00;;;;;;682260;28;1269;-92
2022/08/08 01:11:52;;;;;;;;;;;31.00;40.90;;;;;;682765;28;1219;-93
2022/08/08 01:12:25;;;;;;;;;;;31.10;41.00;;;;;;684333;28;1359;-94
2022/08/08 01:13:00;;;;;;;;;;;31.00;40.70;;;;;;685117;28;887;-93
2022/08/08 01:13:30;;;;;;;;;;;;;;;;;;682526;29;1527;-93
2022/08/08 01:14:17;;;;;;;;;;;31.10;41.30;;;;;;682471;28;1225;-94
2022/08/08 01:14:59;;;;;;;;;;;31.00;40.60;;;;;;682528;28;1257;-93
2022/08/08 01:15:19;;;;;;;;;;;31.00;40.70;;;;;;684691;28;1269;-92
2022/08/08 01:15:51;;;;;;;;;;;31.00;40.50;;;;;;682594;29;1265;-93
2022/08/08 01:16:30;;;;;;;;;;;31.00;40.60;;;;;;682663;29;839;-94
2022/08/08 01:16:51;;;;;;;;;;;;;;;;;;682487;28;1131;-93
2022/08/08 01:17:18;;;;;;;;;;;31.00;40.70;;;;;;681555;28;1174;-93
2022/08/08 01:17:42;;;;;;;;;;;31.00;40.60;;;;;;680594;29;1197;-93
2022/08/08 01:18:22;;;;;;;;;;;31.00;40.80;;;;;;680775;29;1446;-94
2022/08/08 01:18:57;;;;;;;;;;;31.00;40.90;;;;;;679217;29;1460;-93
2022/08/08 01:19:38;;;;;;;;;;;31.00;40.60;;;;;;680833;29;1397;-94
2022/08/08 01:20:37;;;;;;;;;;;31.00;41.10;;;;;;678781;29;1361;-95
2022/08/08 01:21:12;;;;;;;;;;;31.00;40.80;;;;;;683273;28;1548;-94
2022/08/08 01:21:53;;;;;;;;;;;31.00;40.60;;;;;;680587;29;1257;-93
2022/08/08 01:22:46;;;;;;;;;;;31.00;40.50;;;;;;683403;28;1268;-93
2022/08/08 01:23:34;;;;;;;;;;;31.00;40.40;;;;;;680655;29;1396;-94
2022/08/08 01:23:55;;;;;;;;;;;;;;;;;;683568;28;1165;-93
2022/08/08 01:24:35;;;;;;;;;;;31.00;40.30;;;;;;683448;28;1169;-93
2022/08/08 01:25:16;;;;;;;;;;;31.00;40.30;;;;;;684410;28;1261;-94
2022/08/08 01:25:40;;;;;;;;;;;31.00;40.30;;;;;;683353;28;1891;-94
2022/08/08 01:26:05;;;;;;;;;;;31.00;40.30;;;;;;683331;28;1334;-93
2022/08/08 01:26:44;;;;;;;;;;;31.00;40.30;;;;;;683756;28;1165;-94
2022/08/08 01:28:00;;;;;;;;;;;31.00;40.30;;;;;;684357;28;1088;-94
2022/08/08 01:28:24;;;;;;;;;;;;;;;;;;679159;29;1228;-94
2022/08/08 01:28:47;;;;;;;;;;;31.00;40.30;;;;;;680856;29;1395;-94
2022/08/08 01:29:37;;;;;;;;;;;31.00;40.20;;;;;;680724;29;1128;-94
2022/08/08 01:29:59;;;;;;;;;;;31.00;40.20;;;;;;683466;29;1407;-95
2022/08/08 01:30:26;;;;;;;;;;;31.00;40.30;;;;;;683426;29;1221;-93
2022/08/08 01:31:26;;;;;;;;;;;31.00;40.20;;;;;;683521;29;1221;-95
2022/08/08 01:31:49;;;;;;;;;;;31.00;40.20;;;;;;680704;29;1155;-94
2022/08/08 01:32:46;;;;;;;;;;;31.00;40.20;;;;;;681660;29;1376;-93
2022/08/08 01:33:22;;;;;;;;;;;31.00;40.30;;;;;;683393;29;1118;-95
2022/08/08 01:34:08;;;;;;;;;;;31.00;40.30;;;;;;680789;29;1111;-91
2022/08/08 01:34:41;;;;;;;;;;;31.00;40.40;;;;;;672829;29;1372;-91
2022/08/08 01:37:16;;;;;;;;;;;31.00;40.10;;;;;;680736;29;1201;-92
2022/08/08 01:37:55;;;;;;;;;;;31.10;40.30;;;;;;678361;29;1249;-93
2022/08/08 01:38:33;;;;;;;;;;;31.00;40.20;;;;;;678247;29;1599;-95
2022/08/08 01:39:11;;;;;;;;;;;31.10;40.20;;;;;;678244;29;1349;-88
2022/08/08 01:39:33;;;;;;;;;;;31.10;40.30;;;;;;680387;29;1305;-93
2022/08/08 01:40:00;;;;;;;;;;;31.00;40.30;;;;;;682300;29;1489;-96
2022/08/08 01:40:26;;;;;;;;;;;31.00;40.20;;;;;;683543;29;1310;-95
2022/08/08 01:41:02;;;;;;;;;;;31.00;40.20;;;;;;684007;29;1370;-96
2022/08/08 01:41:27;;;;;;;;;;;31.00;40.10;;;;;;681263;29;1226;-95
2022/08/08 01:42:15;;;;;;;;;;;31.10;40.20;;;;;;680941;29;859;-90
2022/08/08 01:42:56;;;;;;;;;;;31.00;40.20;;;;;;679160;29;1090;-94
2022/08/08 01:43:45;;;;;;;;;;;31.00;40.20;;;;;;678120;29;1703;-88
2022/08/08 01:45:03;;;;;;;;;;;31.00;40.20;;;;;;681823;29;744;-88
2022/08/08 01:46:06;;;;;;;;;;;31.00;40.20;;;;;;679093;29;1935;-86
2022/08/08 01:47:13;;;;;;;;;;;31.10;40.30;;;;;;673884;29;1034;-87
2022/08/08 01:48:16;;;;;;;;;;;31.10;40.30;;;;;;676651;29;1531;-87
2022/08/08 01:49:42;;;;;;;;;;;31.10;40.30;;;;;;676740;29;1278;-87
2022/08/08 01:50:12;;;;;;;;;;;31.10;40.30;;;;;;678986;29;907;-85
2022/08/08 01:51:03;;;;;;;;;;;31.10;40.30;;;;;;681818;29;970;-86
2022/08/08 01:51:50;;;;;;;;;;;31.10;40.40;;;;;;681847;29;973;-86
2022/08/08 01:53:18;;;;;;;;;;;31.10;40.40;;;;;;677872;29;1421;-87
2022/08/08 01:54:57;;;;;;;;;;;;;;;;;;679142;29;1099;-86
2022/08/08 01:57:07;;;;;;;;;;;31.10;40.30;;;;;;674107;29;817;-86
2022/08/08 01:58:58;;;;;;;;;;;31.10;40.40;;;;;;678521;29;1238;-87
2022/08/08 01:59:49;;;;;;;;;;;31.10;40.40;;;;;;676641;29;934;-87
2022/08/08 02:00:35;;;;;;;;;;;31.10;40.40;;;;;;676533;29;879;-87
2022/08/08 02:07:03;;;;;;;;;;;31.10;40.20;;;;;;465993;26;1879;-87
2022/08/08 02:07:47;;;;;;;;;;;31.20;40.40;;;;;;702614;28;1558;-87
2022/08/08 02:08:31;;;;;;;;;;;31.10;40.40;;;;;;704443;28;1237;-87
2022/08/08 02:09:05;;;;;;;;;;;31.10;40.40;;;;;;694229;28;1424;-86
2022/08/08 02:09:35;;;;;;;;;;;31.10;40.40;;;;;;694303;28;1191;-87
2022/08/08 02:10:14;;;;;;;;;;;31.10;40.40;;;;;;695396;28;1019;-86
2022/08/08 02:10:53;;;;;;;;;;;31.10;40.50;;;;;;691892;28;1544;-86
2022/08/08 02:11:34;;;;;;;;;;;31.10;40.40;;;;;;690545;28;916;-86
2022/08/08 02:12:26;;;;;;;;;;;31.10;40.50;;;;;;693653;28;966;-86
2022/08/08 02:13:21;;;;;;;;;;;31.10;40.50;;;;;;694925;28;918;-86
2022/08/08 02:13:46;;;;;;;;;;;31.10;40.50;;;;;;688878;28;968;-86
2022/08/08 02:14:25;;;;;;;;;;;31.10;40.50;;;;;;686229;29;1594;-86
2022/08/08 02:15:41;;;;;;;;;;;31.10;40.60;;;;;;681804;29;947;-90
2022/08/08 02:16:46;;;;;;;;;;;31.10;40.70;;;;;;707989;22;1764;-95
2022/08/08 02:18:39;;;;;;;;;;;31.10;40.30;;;;;;729894;22;1854;-95
2022/08/08 02:19:17;;;;;;;;;;;31.10;40.40;;;;;;701541;28;790;-96
2022/08/08 02:19:47;;;;;;;;;;;31.10;40.30;;;;;;701030;28;1099;-96
2022/08/08 02:20:11;;;;;;;;;;;31.10;40.40;;;;;;702471;28;1283;-96
2022/08/08 02:22:30;;;;;;;;;;;31.10;40.40;;;;;;700473;28;1094;-94
2022/08/08 02:22:30;;;;;;;;;;;;;;;;;;699384;28;1467;-96
2022/08/08 02:23:09;;;;;;;;;;;31.10;40.50;;;;;;700137;28;1193;-96
2022/08/08 02:23:37;;;;;;;;;;;31.10;40.50;;;;;;696866;28;1333;-95
2022/08/08 02:24:26;;;;;;;;;;;31.10;40.50;;;;;;697327;28;921;-95
2022/08/08 02:25:05;;;;;;;;;;;31.10;40.50;;;;;;699390;28;1225;-96
2022/08/08 02:25:44;;;;;;;;;;;31.10;40.50;;;;;;699206;28;1202;-92
2022/08/08 02:26:13;;;;;;;;;;;31.10;40.50;;;;;;697930;28;822;-96
2022/08/08 02:26:54;;;;;;;;;;;31.10;40.60;;;;;;697974;28;1235;-95
2022/08/08 02:27:23;;;;;;;;;;;31.10;40.60;;;;;;696982;28;1598;-94
2022/08/08 02:27:57;;;;;;;;;;;31.10;40.60;;;;;;697008;28;1357;-95
2022/08/08 02:28:55;;;;;;;;;;;31.10;40.60;;;;;;698261;28;1581;-93
2022/08/08 02:29:39;;;;;;;;;;;31.10;41.10;;;;;;700089;28;920;-86
2022/08/08 02:35:41;;;;;;;;;;;31.10;40.90;;;;;;699472;28;1176;-95
2022/08/08 02:36:01;;;;;;;;;;;;;;;;;;698798;28;1185;-95
2022/08/08 02:36:22;;;;;;;;;;;31.10;40.90;;;;;;698889;28;1243;-90
2022/08/08 02:37:01;;;;;;;;;;;31.10;41.50;;;;;;699598;28;1304;-96
2022/08/08 02:37:45;;;;;;;;;;;31.10;41.50;;;;;;699711;28;1445;-96
2022/08/08 02:38:44;;;;;;;;;;;31.10;41.80;;;;;;697749;28;1279;-95
2022/08/08 02:39:23;;;;;;;;;;;31.10;41.40;;;;;;688757;28;1170;-96
2022/08/08 02:40:03;;;;;;;;;;;31.00;41.30;;;;;;691556;28;1405;-95
2022/08/08 02:41:03;;;;;;;;;;;31.00;41.50;;;;;;691360;28;1340;-93
2022/08/08 02:41:39;;;;;;;;;;;31.00;41.50;;;;;;680292;29;1292;-90
2022/08/08 02:42:17;;;;;;;;;;;31.00;41.20;;;;;;676392;29;1410;-95
2022/08/08 02:43:12;;;;;;;;;;;31.00;41.10;;;;;;683668;29;1005;-85
2022/08/08 02:44:05;;;;;;;;;;;31.00;41.70;;;;;;678366;29;964;-95
2022/08/08 02:45:12;;;;;;;;;;;31.00;41.30;;;;;;676139;29;1525;-85
2022/08/08 02:45:47;;;;;;;;;;;31.00;41.20;;;;;;677224;29;1652;-84
2022/08/08 02:46:18;;;;;;;;;;;31.00;41.10;;;;;;678757;29;1349;-85
2022/08/08 02:47:02;;;;;;;;;;;31.00;41.30;;;;;;677393;29;922;-96
2022/08/08 02:47:41;;;;;;;;;;;31.00;41.40;;;;;;674774;29;1058;-91
2022/08/08 02:48:01;;;;;;;;;;;31.00;41.40;;;;;;673501;29;1281;-95
2022/08/08 02:48:40;;;;;;;;;;;31.00;41.10;;;;;;674089;29;970;-87
2022/08/08 02:49:20;;;;;;;;;;;31.00;41.30;;;;;;674065;29;1114;-85
2022/08/08 02:49:59;;;;;;;;;;;31.00;41.30;;;;;;674023;29;851;-86
2022/08/08 02:51:37;;;;;;;;;;;31.00;41.40;;;;;;674001;29;797;-84
2022/08/08 03:09:46;;;;;;;;;;;31.00;41.60;;;;;;701426;25;1831;-84
2022/08/08 03:11:40;;;;;;;;;;;;;;;;;;791655;22;1487;-84
2022/08/08 03:12:15;;;;;;;;;;;31.00;41.10;;;;;;703802;28;2068;-84
2022/08/08 03:12:42;;;;;;;;;;;30.90;41.10;;;;;;704380;28;1189;-83
2022/08/08 03:16:36;;;;;;;;;;;31.00;40.90;;;;;;771105;22;1777;-85
2022/08/08 04:05:47;;;;;;;;;;;31.10;40.60;;;;;;697054;26;1937;-92
2022/08/08 04:06:08;;;;;;;;;;;31.10;40.70;;;;;;701896;28;1385;-93
2022/08/08 04:06:28;;;;;;;;;;;31.10;40.80;;;;;;702269;28;1023;-96
2022/08/08 04:06:56;;;;;;;;;;;31.10;40.80;;;;;;701333;28;1269;-96
2022/08/08 04:07:17;;;;;;;;;;;31.00;40.70;;;;;;701138;28;918;-95
2022/08/08 04:07:38;;;;;;;;;;;31.00;40.70;;;;;;700963;28;1302;-95
2022/08/08 04:07:59;;;;;;;;;;;31.00;40.80;;;;;;701297;28;1267;-92
2022/08/08 04:08:21;;;;;;;;;;;31.00;40.80;;;;;;701582;28;802;-96
2022/08/08 04:08:42;;;;;;;;;;;31.10;40.90;;;;;;701671;28;857;-96
2022/08/08 04:09:04;;;;;;;;;;;31.00;40.90;;;;;;701004;28;806;-96
2022/08/08 04:09:25;;;;;;;;;;;31.10;41.00;;;;;;701271;28;1012;-95
2022/08/08 04:09:55;;;;;;;;;;;31.10;40.90;;;;;;699257;28;1363;-96
2022/08/08 04:10:16;;;;;;;;;;;31.00;40.90;;;;;;700561;28;1335;-95
2022/08/08 04:10:37;;;;;;;;;;;31.00;40.90;;;;;;698071;28;1318;-95
2022/08/08 04:11:01;;;;;;;;;;;31.00;41.00;;;;;;695283;28;1239;-96
2022/08/08 04:11:21;;;;;;;;;;;31.00;41.00;;;;;;692604;28;1553;-96
2022/08/08 04:11:43;;;;;;;;;;;31.00;40.90;;;;;;690642;28;1294;-96
2022/08/08 04:12:03;;;;;;;;;;;31.00;40.90;;;;;;690566;28;1301;-94
2022/08/08 04:12:24;;;;;;;;;;;31.00;41.40;;;;;;693152;28;1256;-95
2022/08/08 04:12:45;;;;;;;;;;;31.00;41.20;;;;;;693503;28;1266;-93
2022/08/08 04:13:05;;;;;;;;;;;31.00;40.80;;;;;;692673;28;889;-93
2022/08/08 04:13:26;;;;;;;;;;;31.00;41.10;;;;;;694735;28;905;-96
2022/08/08 04:13:46;;;;;;;;;;;31.00;41.00;;;;;;694151;28;1329;-93
2022/08/08 04:14:07;;;;;;;;;;;30.90;40.90;;;;;;695177;28;861;-95
2022/08/08 04:14:28;;;;;;;;;;;31.00;41.00;;;;;;697703;28;861;-94
2022/08/08 04:14:48;;;;;;;;;;;31.00;41.00;;;;;;700265;28;806;-96
2022/08/08 04:15:09;;;;;;;;;;;31.00;41.00;;;;;;699790;28;1391;-96
2022/08/08 04:15:30;;;;;;;;;;;31.00;41.00;;;;;;700809;28;843;-94
2022/08/08 04:15:51;;;;;;;;;;;31.00;41.00;;;;;;705628;28;1290;-87
2022/08/08 04:16:12;;;;;;;;;;;31.00;41.00;;;;;;703236;28;1308;-85
2022/08/08 04:16:32;;;;;;;;;;;30.90;40.90;;;;;;703333;28;1082;-85
2022/08/08 04:16:53;;;;;;;;;;;31.00;41.10;;;;;;700398;28;1187;-86
2022/08/08 04:17:14;;;;;;;;;;;31.00;41.10;;;;;;697276;28;1388;-85
2022/08/08 04:17:34;;;;;;;;;;;31.00;41.10;;;;;;697607;28;1056;-84
2022/08/08 04:17:55;;;;;;;;;;;31.00;41.20;;;;;;698018;28;1236;-88
2022/08/08 04:18:15;;;;;;;;;;;31.00;41.20;;;;;;697762;28;1161;-87
2022/08/08 04:18:36;;;;;;;;;;;31.00;41.10;;;;;;698134;28;1201;-86
2022/08/08 04:25:53;;;;;;;;;;;;;;;;;;367186;26;3735;-85
2022/08/08 04:26:14;;;;;;;;;;;31.00;41.10;;;;;;704707;28;1242;-85
2022/08/08 04:26:35;;;;;;;;;;;31.00;41.10;;;;;;702340;28;1342;-85
2022/08/08 04:26:55;;;;;;;;;;;31.00;41.20;;;;;;702489;28;1254;-85
2022/08/08 04:27:25;;;;;;;;;;;31.00;41.20;;;;;;702854;28;1078;-90
2022/08/08 04:28:05;;;;;;;;;;;31.00;41.30;;;;;;699361;28;1826;-84
2022/08/08 04:28:26;;;;;;;;;;;31.00;41.20;;;;;;699441;28;980;-87
2022/08/08 04:28:46;;;;;;;;;;;31.00;41.30;;;;;;696977;28;1248;-85
2022/08/08 04:29:07;;;;;;;;;;;30.90;41.00;;;;;;697434;28;981;-89
2022/08/08 04:29:27;;;;;;;;;;;30.90;41.30;;;;;;694768;28;1420;-84
2022/08/08 04:29:48;;;;;;;;;;;31.00;41.50;;;;;;700435;28;913;-86
2022/08/08 04:30:09;;;;;;;;;;;30.90;41.40;;;;;;700374;28;1234;-85
2022/08/08 04:30:31;;;;;;;;;;;30.90;41.30;;;;;;701021;28;1051;-84
2022/08/08 04:31:44;;;;;;;;;;;30.90;41.30;;;;;;697671;28;964;-87
2022/08/08 04:33:39;;;;;;;;;;;30.90;41.30;;;;;;686844;29;958;-86
2022/08/08 04:34:44;;;;;;;;;;;30.90;41.30;;;;;;681623;29;917;-84
2022/08/08 04:35:28;;;;;;;;;;;30.90;41.30;;;;;;682271;29;942;-84
2022/08/08 04:35:49;;;;;;;;;;;30.90;41.30;;;;;;684249;29;496;-84
2022/08/08 04:55:38;;;;;;;;;;;;;;;;;;682007;22;2463;-85
2022/08/08 04:55:58;;;;;;;;;;;30.90;41.40;;;;;;703747;28;1261;-86
2022/08/08 04:56:20;;;;;;;;;;;30.90;41.50;;;;;;700817;28;1303;-86
2022/08/08 04:56:40;;;;;;;;;;;30.90;41.40;;;;;;698183;28;1328;-86
2022/08/08 04:57:52;;;;;;;;;;;;;;;;;;717685;23;1773;-85
2022/08/08 04:58:14;;;;;;;;;;;30.80;41.30;;;;;;702690;28;1048;-86
2022/08/08 04:58:34;;;;;;;;;;;30.90;41.50;;;;;;702820;28;1131;-87
2022/08/08 04:58:55;;;;;;;;;;;30.90;41.70;;;;;;700910;28;1291;-90
2022/08/08 04:59:16;;;;;;;;;;;30.90;41.40;;;;;;701040;28;984;-85
2022/08/08 04:59:37;;;;;;;;;;;30.90;41.40;;;;;;700996;28;759;-86
2022/08/08 04:59:59;;;;;;;;;;;30.80;41.40;;;;;;700995;28;936;-87
2022/08/08 05:00:20;;;;;;;;;;;30.80;41.40;;;;;;701486;28;1016;-87
2022/08/08 05:00:40;;;;;;;;;;;30.80;41.30;;;;;;700892;28;1272;-86
2022/08/08 05:08:10;;;;;;;;;;;30.90;40.80;;;;;;702185;28;1259;-88
2022/08/08 05:08:34;;;;;;;;;;;30.90;40.90;;;;;;702221;28;930;-93
2022/08/08 05:08:58;;;;;;;;;;;30.90;40.90;;;;;;700537;28;1009;-93
2022/08/08 05:09:22;;;;;;;;;;;30.90;40.90;;;;;;699852;28;965;-92
2022/08/08 05:09:43;;;;;;;;;;;30.90;41.00;;;;;;694613;28;1359;-92
2022/08/08 05:10:07;;;;;;;;;;;30.90;41.00;;;;;;695426;28;1315;-93
2022/08/08 05:10:28;;;;;;;;;;;30.90;41.00;;;;;;695425;28;1565;-93
2022/08/08 05:10:50;;;;;;;;;;;30.90;41.10;;;;;;695364;28;893;-94
2022/08/08 05:11:13;;;;;;;;;;;30.90;41.10;;;;;;695495;28;803;-91
2022/08/08 05:11:38;;;;;;;;;;;30.90;41.10;;;;;;696507;28;1410;-93
2022/08/08 05:11:58;;;;;;;;;;;30.90;41.10;;;;;;694815;28;1273;-91
2022/08/08 05:12:19;;;;;;;;;;;30.90;41.10;;;;;;694541;28;850;-93
2022/08/08 05:12:41;;;;;;;;;;;30.90;41.00;;;;;;694772;28;795;-94
2022/08/08 05:13:03;;;;;;;;;;;30.90;41.00;;;;;;694673;28;1319;-94
2022/08/08 05:13:23;;;;;;;;;;;30.90;41.00;;;;;;694517;28;1439;-90
2022/08/08 05:13:44;;;;;;;;;;;30.90;41.00;;;;;;695324;28;791;-95
2022/08/08 05:14:04;;;;;;;;;;;30.90;41.10;;;;;;696716;28;1189;-95
2022/08/08 05:14:25;;;;;;;;;;;30.90;41.10;;;;;;694681;28;1341;-94
2022/08/08 05:14:46;;;;;;;;;;;30.90;41.10;;;;;;694739;28;1245;-96
2022/08/08 05:15:07;;;;;;;;;;;30.90;41.10;;;;;;692329;28;1288;-95
2022/08/08 05:15:29;;;;;;;;;;;30.80;41.00;;;;;;694590;28;1408;-96
2022/08/08 05:15:49;;;;;;;;;;;30.80;41.00;;;;;;694472;28;1501;-96
2022/08/08 05:16:10;;;;;;;;;;;30.90;41.10;;;;;;691417;28;1529;-96
2022/08/08 05:16:32;;;;;;;;;;;30.90;41.10;;;;;;689145;28;1234;-96
2022/08/08 05:16:53;;;;;;;;;;;30.80;41.00;;;;;;692011;28;1524;-96
2022/08/08 05:17:13;;;;;;;;;;;30.90;41.10;;;;;;692937;28;897;-95
2022/08/08 05:17:34;;;;;;;;;;;30.90;41.20;;;;;;695114;28;1079;-96
2022/08/08 05:17:54;;;;;;;;;;;30.90;41.10;;;;;;694888;28;1515;-96
2022/08/08 05:18:17;;;;;;;;;;;30.80;41.00;;;;;;697464;28;1005;-96
2022/08/08 05:18:37;;;;;;;;;;;30.90;41.10;;;;;;697595;28;822;-96
2022/08/08 05:18:58;;;;;;;;;;;30.90;41.10;;;;;;697576;28;1244;-96
2022/08/08 05:19:19;;;;;;;;;;;30.90;41.10;;;;;;697017;28;1554;-96
2022/08/08 05:19:39;;;;;;;;;;;30.90;41.10;;;;;;694599;28;1606;-96
2022/08/08 05:20:00;;;;;;;;;;;30.90;41.10;;;;;;694538;28;1329;-96
2022/08/08 05:20:21;;;;;;;;;;;30.80;41.00;;;;;;691811;28;1272;-96
2022/08/08 05:20:41;;;;;;;;;;;30.90;41.00;;;;;;692326;28;898;-96
2022/08/08 05:21:03;;;;;;;;;;;30.90;41.10;;;;;;691990;28;1429;-96
2022/08/08 05:21:24;;;;;;;;;;;30.90;41.00;;;;;;691760;28;1347;-96
2022/08/08 05:21:44;;;;;;;;;;;30.90;41.00;;;;;;691846;28;1382;-96
2022/08/08 05:22:06;;;;;;;;;;;30.80;41.00;;;;;;692174;28;1241;-96
2022/08/08 05:22:27;;;;;;;;;;;30.90;41.10;;;;;;691790;28;1218;-96
2022/08/08 05:22:49;;;;;;;;;;;30.90;41.10;;;;;;692323;28;815;-96
2022/08/08 05:23:11;;;;;;;;;;;30.80;41.00;;;;;;691438;28;1380;-96
2022/08/08 05:23:31;;;;;;;;;;;30.90;41.10;;;;;;689941;28;1351;-96
2022/08/08 05:23:53;;;;;;;;;;;30.90;41.10;;;;;;692163;28;752;-93
2022/08/08 05:24:16;;;;;;;;;;;30.80;41.00;;;;;;690922;28;1249;-96
2022/08/08 05:24:37;;;;;;;;;;;;;;;;;;693765;28;1581;-94
2022/08/08 05:25:01;;;;;;;;;;;30.90;41.10;;;;;;690573;28;1545;-96
2022/08/08 05:25:22;;;;;;;;;;;30.90;41.10;;;;;;691077;28;1517;-96
2022/08/08 05:25:45;;;;;;;;;;;30.80;41.00;;;;;;692730;28;1883;-96
2022/08/08 05:26:05;;;;;;;;;;;30.90;41.10;;;;;;693831;28;1054;-96
2022/08/08 05:26:30;;;;;;;;;;;30.70;41.00;;;;;;692516;28;1250;-96
2022/08/08 05:26:51;;;;;;;;;;;30.90;41.10;;;;;;688273;28;1289;-96
2022/08/08 05:27:17;;;;;;;;;;;30.70;40.90;;;;;;689666;28;1435;-94
2022/08/08 05:27:38;;;;;;;;;;;30.90;41.10;;;;;;690824;28;1643;-96
2022/08/08 05:28:00;;;;;;;;;;;30.80;41.00;;;;;;692945;28;1683;-96